createdAt,value
2022-09-13T00:00:58.841Z,7.05
2022-09-13T00:06:14.110Z,7.45
2022-09-13T00:11:22.228Z,6.88
2022-09-13T00:16:29.492Z,6.28
2022-09-13T00:21:32.899Z,7.25
2022-09-13T00:26:37.602Z,6.45
2022-09-13T00:31:41.071Z,7.22
2022-09-13T00:36:45.966Z,7.75
2022-09-13T00:41:50.741Z,7.18
2022-09-13T00:46:54.305Z,7.10
2022-09-13T00:52:01.207Z,6.85
2022-09-13T00:57:06.737Z,7.82
2022-09-13T01:02:10.666Z,7.53
2022-09-13T01:07:16.297Z,7.18
2022-09-13T01:12:31.970Z,6.90
2022-09-13T01:17:36.120Z,7.38
2022-09-13T01:23:05.612Z,6.30
2022-09-13T01:28:34.094Z,6.93
2022-09-13T01:33:54.708Z,6.20
2022-09-13T01:39:04.260Z,6.88
2022-09-13T01:44:16.301Z,5.50
2022-09-13T01:49:26.480Z,6.20
2022-09-13T01:54:39.143Z,6.47
2022-09-13T01:59:51.618Z,7.25
2022-09-13T02:05:05.069Z,6.10
2022-09-13T02:10:14.249Z,6.78
2022-09-13T02:15:21.468Z,6.90
2022-09-13T02:20:30.064Z,6.45
2022-09-13T02:25:36.196Z,6.68
2022-09-13T02:30:44.401Z,6.38
2022-09-13T02:35:55.303Z,6.13
2022-09-13T02:41:02.990Z,6.15
2022-09-13T02:46:17.534Z,6.57
2022-09-13T02:51:31.416Z,6.55
2022-09-13T02:56:42.685Z,6.78
2022-09-13T03:01:50.429Z,6.47
2022-09-13T03:06:55.535Z,5.93
2022-09-13T03:12:13.738Z,6.80
2022-09-13T03:17:36.049Z,6.18
2022-09-13T03:23:14.110Z,6.78
2022-09-13T03:28:26.078Z,6.90
2022-09-13T03:33:36.424Z,7.50
2022-09-13T03:38:46.605Z,6.63
2022-09-13T03:43:53.857Z,6.78
2022-09-13T03:48:58.705Z,7.05
2022-09-13T03:54:06.382Z,6.40
2022-09-13T03:59:09.756Z,6.55
2022-09-13T04:04:13.163Z,7.45
2022-09-13T04:09:18.101Z,7.45
2022-09-13T04:14:21.850Z,6.85
2022-09-13T04:19:26.530Z,7.05
2022-09-13T04:24:32.116Z,6.80
2022-09-13T04:29:35.500Z,7.20
2022-09-13T04:34:39.104Z,6.50
2022-09-13T04:39:44.407Z,6.65
2022-09-13T04:44:50.131Z,6.82
2022-09-13T04:49:53.440Z,6.22
2022-09-13T04:55:01.457Z,6.45
2022-09-13T05:00:06.319Z,6.10
2022-09-13T05:05:10.793Z,6.47
2022-09-13T05:10:19.405Z,7.10
2022-09-13T05:15:23.325Z,7.10
2022-09-13T05:20:26.727Z,6.15
2022-09-13T05:25:31.494Z,6.10
2022-09-13T05:30:37.453Z,5.55
2022-09-13T05:35:43.008Z,5.43
2022-09-13T05:40:48.646Z,6.43
2022-09-13T05:45:52.096Z,6.00
2022-09-13T05:50:58.290Z,5.85
2022-09-13T05:56:04.001Z,5.57
2022-09-13T06:01:07.743Z,6.13
2022-09-13T06:06:12.203Z,6.90
2022-09-13T06:11:17.499Z,5.90
2022-09-13T06:16:21.528Z,5.53
2022-09-13T06:21:28.951Z,5.07
2022-09-13T06:26:35.023Z,5.13
2022-09-13T06:31:43.715Z,5.30
2022-09-13T06:36:47.407Z,4.88
2022-09-13T06:41:52.066Z,5.75
2022-09-13T06:46:55.434Z,5.65
2022-09-13T06:51:59.081Z,4.78
2022-09-13T06:57:04.446Z,4.15
2022-09-13T07:02:08.688Z,4.32
2022-09-13T07:07:12.210Z,4.35
2022-09-13T07:12:20.452Z,4.88
2022-09-13T07:17:24.841Z,4.53
2022-09-13T07:22:30.253Z,3.90
2022-09-13T07:27:34.934Z,4.35
2022-09-13T07:32:38.245Z,4.13
2022-09-13T07:37:42.434Z,4.13
2022-09-13T07:42:47.459Z,4.30
2022-09-13T07:47:53.703Z,5.05
2022-09-13T07:52:57.296Z,4.78
2022-09-13T07:58:01.952Z,4.15
2022-09-13T08:03:05.394Z,4.13
2022-09-13T08:08:08.737Z,3.72
2022-09-13T08:13:13.911Z,3.58
2022-09-13T08:18:17.722Z,3.75
2022-09-13T08:23:21.662Z,4.30
2022-09-13T08:28:27.811Z,3.97
2022-09-13T08:33:31.370Z,3.88
2022-09-13T08:38:35.045Z,3.67
2022-09-13T08:43:50.488Z,5.18
2022-09-13T08:48:59.842Z,5.68
2022-09-13T08:54:04.616Z,4.22
2022-09-13T08:59:27.731Z,5.07
2022-09-13T09:04:40.848Z,4.57
2022-09-13T09:09:49.530Z,4.90
2022-09-13T09:15:02.188Z,5.97
2022-09-13T09:20:18.546Z,4.57
2022-09-13T09:25:24.043Z,4.07
2022-09-13T09:30:38.266Z,3.97
2022-09-13T09:35:53.162Z,3.35
2022-09-13T09:40:56.602Z,3.25
2022-09-13T09:46:05.421Z,3.25
2022-09-13T09:51:11.639Z,3.33
2022-09-13T09:56:25.328Z,3.45
2022-09-13T10:01:32.523Z,3.00
2022-09-13T10:06:38.350Z,2.40
2022-09-13T10:11:46.390Z,2.70
2022-09-13T10:17:05.320Z,2.67
2022-09-13T10:22:13.117Z,3.25
2022-09-13T10:27:39.352Z,2.45
2022-09-13T10:32:55.800Z,2.50
2022-09-13T10:37:59.430Z,2.30
2022-09-13T10:43:05.402Z,3.00
2022-09-13T10:48:15.981Z,2.80
2022-09-13T10:53:34.433Z,2.78
2022-09-13T10:58:37.937Z,3.30
2022-09-13T11:04:32.654Z,2.85
2022-09-13T11:09:44.398Z,3.42
2022-09-13T11:15:02.530Z,2.95
2022-09-13T11:20:30.273Z,2.80
2022-09-13T11:25:50.116Z,2.67
2022-09-13T11:31:09.249Z,2.83
2022-09-13T11:36:26.708Z,2.67
2022-09-13T11:41:43.097Z,2.95
2022-09-13T11:46:52.017Z,2.92
2022-09-13T11:52:02.831Z,2.83
2022-09-13T11:57:11.810Z,3.42
2022-09-13T12:02:22.631Z,3.60
2022-09-13T12:07:38.475Z,3.17
2022-09-13T12:12:44.409Z,2.95
2022-09-13T12:17:52.013Z,3.22
2022-09-13T12:22:56.147Z,3.33
2022-09-13T12:28:09.091Z,3.40
2022-09-13T12:33:16.087Z,3.25
2022-09-13T12:39:01.213Z,2.95
2022-09-13T12:44:35.132Z,2.80
2022-09-13T12:50:01.740Z,3.17
2022-09-13T12:55:47.788Z,2.83
2022-09-13T13:01:09.886Z,3.78
2022-09-13T13:06:26.668Z,4.07
2022-09-13T13:11:41.674Z,3.50
2022-09-13T13:16:48.434Z,3.60
2022-09-13T13:21:51.820Z,3.47
2022-09-13T13:26:57.552Z,3.10
2022-09-13T13:32:12.911Z,2.95
2022-09-13T13:37:44.102Z,4.45
2022-09-13T13:42:48.061Z,3.20
2022-09-13T13:48:12.623Z,3.40
2022-09-13T13:53:23.273Z,3.45
2022-09-13T13:58:34.683Z,3.00
2022-09-13T14:04:11.578Z,3.25
2022-09-13T14:09:33.197Z,3.13
2022-09-13T14:14:57.613Z,3.30
2022-09-13T14:20:06.505Z,3.20
2022-09-13T14:25:24.612Z,3.03
2022-09-13T14:30:32.542Z,3.47
2022-09-13T14:35:39.257Z,3.42
2022-09-13T14:40:42.732Z,3.75
2022-09-13T14:45:48.543Z,3.67
2022-09-13T14:50:57.970Z,3.08
2022-09-13T14:56:04.641Z,3.45
2022-09-13T15:01:11.768Z,3.83
2022-09-13T15:06:26.060Z,3.10
2022-09-13T15:11:32.834Z,3.50
2022-09-13T15:16:36.200Z,3.92
2022-09-13T15:21:41.245Z,3.40
2022-09-13T15:26:44.525Z,4.00
2022-09-13T15:31:47.922Z,2.60
2022-09-13T15:37:09.813Z,3.03
2022-09-13T15:42:13.248Z,2.77
2022-09-13T15:47:19.647Z,4.05
2022-09-13T15:52:24.363Z,2.75
2022-09-13T15:57:31.153Z,3.30
2022-09-13T16:02:35.689Z,4.50
2022-09-13T16:07:41.029Z,3.20
2022-09-13T16:12:44.378Z,3.15
2022-09-13T16:17:47.748Z,3.15
2022-09-13T16:22:52.481Z,3.20
2022-09-13T16:27:55.776Z,3.40
2022-09-13T16:32:59.321Z,2.92
2022-09-13T16:38:04.042Z,3.15
2022-09-13T16:44:32.597Z,4.07
2022-09-13T16:49:36.142Z,3.92
2022-09-13T16:54:39.681Z,3.72
2022-09-13T16:59:46.809Z,4.07
2022-09-13T17:04:50.426Z,3.40
2022-09-13T17:09:54.030Z,3.55
2022-09-13T17:14:59.119Z,3.90
2022-09-13T17:20:03.647Z,4.20
2022-09-13T17:25:08.599Z,4.30
2022-09-13T17:30:14.897Z,4.25
2022-09-13T17:35:18.538Z,3.58
2022-09-13T17:40:21.940Z,4.03
2022-09-13T17:45:27.309Z,3.70
2022-09-13T17:50:30.693Z,3.92
2022-09-13T17:55:33.943Z,4.55
2022-09-13T18:00:38.625Z,4.50
2022-09-13T18:05:42.250Z,3.95
2022-09-13T18:11:10.189Z,4.18
2022-09-13T18:16:13.502Z,4.00
2022-09-13T18:21:21.116Z,4.38
2022-09-13T18:26:25.759Z,3.83
2022-09-13T18:31:32.165Z,4.40
2022-09-13T18:36:36.827Z,3.83
2022-09-13T18:41:41.362Z,4.28
2022-09-13T18:46:46.911Z,3.88
2022-09-13T18:51:50.504Z,3.88
2022-09-13T18:56:55.789Z,3.97
2022-09-13T19:02:00.578Z,4.20
2022-09-13T19:07:06.649Z,4.07
2022-09-13T19:12:09.980Z,3.88
2022-09-13T19:17:15.101Z,4.25
2022-09-13T19:22:18.492Z,4.30
2022-09-13T19:27:22.359Z,4.07
2022-09-13T19:32:27.061Z,4.05
2022-09-13T19:37:30.415Z,4.28
2022-09-13T19:42:33.690Z,4.00
2022-09-13T19:48:49.086Z,4.03
2022-09-13T19:53:03.242Z,3.83
2022-09-13T19:58:06.814Z,4.28
2022-09-13T20:03:11.634Z,4.78
2022-09-13T20:08:15.860Z,3.83
2022-09-13T20:13:19.667Z,4.05
2022-09-13T20:18:25.211Z,4.30
2022-09-13T20:23:29.019Z,4.05
2022-09-13T20:28:32.625Z,4.07
2022-09-13T20:33:40.628Z,4.95
2022-09-13T20:38:48.301Z,4.50
2022-09-13T20:43:52.634Z,5.20
2022-09-13T20:48:57.289Z,4.65
2022-09-13T20:54:01.317Z,5.82
2022-09-13T20:59:05.487Z,5.45
2022-09-13T21:04:10.513Z,5.43
2022-09-13T21:09:14.057Z,5.15
2022-09-13T21:14:17.448Z,5.85
2022-09-13T21:19:22.388Z,4.82
2022-09-13T21:24:25.760Z,5.40
2022-09-13T21:29:29.316Z,5.60
2022-09-13T21:34:34.325Z,5.50
2022-09-13T21:39:37.780Z,5.03
2022-09-13T21:44:41.371Z,4.93
2022-09-13T21:49:46.298Z,5.32
2022-09-13T21:54:49.578Z,5.53
2022-09-13T21:59:53.013Z,5.20
2022-09-13T22:04:57.799Z,4.90
2022-09-13T22:10:01.267Z,5.90
2022-09-13T22:15:04.943Z,5.07
2022-09-13T22:20:10.899Z,5.70
2022-09-13T22:25:14.242Z,5.95
2022-09-13T22:30:17.624Z,6.05
2022-09-13T22:35:22.309Z,6.30
2022-09-13T22:40:25.649Z,6.68
2022-09-13T22:45:29.313Z,6.45
2022-09-13T22:50:33.995Z,6.70
2022-09-13T22:55:37.273Z,6.38
2022-09-13T23:00:40.974Z,5.22
2022-09-13T23:05:52.660Z,6.03
2022-09-13T23:10:56.418Z,5.83
2022-09-13T23:16:03.115Z,5.05
2022-09-13T23:21:08.273Z,5.50
2022-09-13T23:26:17.398Z,6.55
2022-09-13T23:31:22.045Z,6.35
2022-09-13T23:36:29.413Z,6.20
2022-09-13T23:41:34.163Z,6.45
2022-09-13T23:46:37.546Z,7.10
2022-09-13T23:51:42.236Z,6.32
2022-09-13T23:56:45.785Z,8.07
